Terminal Aerodrome Forecast
Issued by NWS Albany, NY

Home | Current Version | Previous Version | Text Only | Print | Product List | Glossary On
Versions: 1 2 3 4 5 6 7 8 9 10 11 12 13 14 15 16 17 18 19 20
415
FTUS41 KALY 010415 AAA
TAFGFL
TAF AMD
KGFL 010415Z 0104/0124 14003KT P6SM OVC035 WS020/16035KT
     FM010800 17007KT P6SM OVC020 WS020/17030KT
     FM011600 18012G17KT P6SM OVC030=

USA.gov is the U.S. government's official web portal to all federal, state and local government web resources and services.